sensor_id;sensor_type;location;lat;lon;timestamp;pressure;altitude;pressure_sealevel;temperature;humidity
65754;BME280;69207;47.502;18.940;2023-09-08T00:00:15;98755.44;;;18.41;73.50
65754;BME280;69207;47.502;18.940;2023-09-08T00:01:19;98755.25;;;18.37;73.58
65754;BME280;69207;47.502;18.940;2023-09-08T00:02:26;98752.47;;;18.37;73.51
65754;BME280;69207;47.502;18.940;2023-09-08T00:03:30;98755.25;;;18.37;73.50
65754;BME280;69207;47.502;18.940;2023-09-08T00:04:33;98753.38;;;18.42;73.29
65754;BME280;69207;47.502;18.940;2023-09-08T00:05:36;98755.12;;;18.49;72.89
65754;BME280;69207;47.502;18.940;2023-09-08T00:06:41;98749.47;;;18.47;72.94
65754;BME280;69207;47.502;18.940;2023-09-08T00:07:44;98752.25;;;18.47;73.01
65754;BME280;69207;47.502;18.940;2023-09-08T00:08:47;98745.97;;;18.46;73.25
65754;BME280;69207;47.502;18.940;2023-09-08T00:09:50;98747.94;;;18.44;73.36
65754;BME280;69207;47.502;18.940;2023-09-08T00:10:53;98751.44;;;18.44;73.32
65754;BME280;69207;47.502;18.940;2023-09-08T00:11:56;98753.59;;;18.46;73.23
65754;BME280;69207;47.502;18.940;2023-09-08T00:13:00;98746.03;;;18.48;73.16
65754;BME280;69207;47.502;18.940;2023-09-08T00:14:03;98754.41;;;18.48;73.13
65754;BME280;69207;47.502;18.940;2023-09-08T00:15:07;98751.09;;;18.52;73.05
65754;BME280;69207;47.502;18.940;2023-09-08T00:16:10;98759.63;;;18.56;72.92
65754;BME280;69207;47.502;18.940;2023-09-08T00:17:13;98755.50;;;18.57;72.77
65754;BME280;69207;47.502;18.940;2023-09-08T00:18:17;98753.84;;;18.66;72.01
65754;BME280;69207;47.502;18.940;2023-09-08T00:19:20;98758.66;;;18.65;72.17
65754;BME280;69207;47.502;18.940;2023-09-08T00:20:24;98758.59;;;18.63;72.50
65754;BME280;69207;47.502;18.940;2023-09-08T00:21:27;98757.88;;;18.63;72.63
65754;BME280;69207;47.502;18.940;2023-09-08T00:22:30;98760.97;;;18.69;72.46
65754;BME280;69207;47.502;18.940;2023-09-08T00:23:33;98759.53;;;18.68;72.65
65754;BME280;69207;47.502;18.940;2023-09-08T00:24:37;98752.91;;;18.75;72.23
65754;BME280;69207;47.502;18.940;2023-09-08T00:25:40;98759.19;;;18.76;71.87
65754;BME280;69207;47.502;18.940;2023-09-08T00:26:43;98762.06;;;18.78;71.95
65754;BME280;69207;47.502;18.940;2023-09-08T00:27:47;98759.75;;;18.88;71.30
65754;BME280;69207;47.502;18.940;2023-09-08T00:28:50;98761.28;;;18.91;71.08
65754;BME280;69207;47.502;18.940;2023-09-08T00:29:53;98760.56;;;18.90;71.39
65754;BME280;69207;47.502;18.940;2023-09-08T00:30:56;98760.03;;;18.94;71.02
65754;BME280;69207;47.502;18.940;2023-09-08T00:32:03;98755.34;;;18.98;70.78
65754;BME280;69207;47.502;18.940;2023-09-08T00:33:06;98759.50;;;18.97;70.96
65754;BME280;69207;47.502;18.940;2023-09-08T00:34:12;98754.38;;;18.92;71.36
65754;BME280;69207;47.502;18.940;2023-09-08T00:35:15;98756.53;;;18.93;71.38
65754;BME280;69207;47.502;18.940;2023-09-08T00:36:18;98751.78;;;18.96;71.13
65754;BME280;69207;47.502;18.940;2023-09-08T00:37:21;98753.13;;;18.95;71.00
65754;BME280;69207;47.502;18.940;2023-09-08T00:38:25;98751.84;;;18.98;70.87
65754;BME280;69207;47.502;18.940;2023-09-08T00:39:29;98754.56;;;18.96;71.04
65754;BME280;69207;47.502;18.940;2023-09-08T00:40:32;98754.38;;;18.92;71.19
65754;BME280;69207;47.502;18.940;2023-09-08T00:41:35;98745.50;;;18.95;70.95
65754;BME280;69207;47.502;18.940;2023-09-08T00:42:39;98739.72;;;18.91;71.33
65754;BME280;69207;47.502;18.940;2023-09-08T00:43:42;98743.78;;;18.88;71.58
65754;BME280;69207;47.502;18.940;2023-09-08T00:44:45;98739.09;;;18.93;71.64
65754;BME280;69207;47.502;18.940;2023-09-08T00:45:48;98743.22;;;18.92;71.40
65754;BME280;69207;47.502;18.940;2023-09-08T00:46:52;98742.31;;;18.87;71.45
65754;BME280;69207;47.502;18.940;2023-09-08T00:47:55;98740.28;;;18.88;71.64
65754;BME280;69207;47.502;18.940;2023-09-08T00:48:58;98738.81;;;18.87;71.52
65754;BME280;69207;47.502;18.940;2023-09-08T00:50:03;98738.09;;;18.86;71.66
65754;BME280;69207;47.502;18.940;2023-09-08T00:51:08;98743.78;;;18.88;71.44
65754;BME280;69207;47.502;18.940;2023-09-08T00:52:12;98735.31;;;18.86;71.64
65754;BME280;69207;47.502;18.940;2023-09-08T00:53:15;98742.44;;;18.89;71.53
65754;BME280;69207;47.502;18.940;2023-09-08T00:54:19;98730.56;;;18.89;71.46
65754;BME280;69207;47.502;18.940;2023-09-08T00:55:22;98737.84;;;18.96;71.36
65754;BME280;69207;47.502;18.940;2023-09-08T00:56:26;98733.91;;;19.01;71.06
65754;BME280;69207;47.502;18.940;2023-09-08T00:57:31;98734.63;;;19.02;71.19
65754;BME280;69207;47.502;18.940;2023-09-08T00:58:34;98739.41;;;18.99;71.21
65754;BME280;69207;47.502;18.940;2023-09-08T00:59:38;98733.72;;;18.97;71.32
65754;BME280;69207;47.502;18.940;2023-09-08T01:00:42;98740.12;;;18.99;71.14
65754;BME280;69207;47.502;18.940;2023-09-08T01:01:46;98726.34;;;19.04;71.28
65754;BME280;69207;47.502;18.940;2023-09-08T01:02:49;98726.09;;;18.97;71.28
65754;BME280;69207;47.502;18.940;2023-09-08T01:03:52;98724.56;;;18.94;71.40
65754;BME280;69207;47.502;18.940;2023-09-08T01:04:55;98730.31;;;18.98;71.52
65754;BME280;69207;47.502;18.940;2023-09-08T01:05:59;98727.97;;;18.93;71.66
65754;BME280;69207;47.502;18.940;2023-09-08T01:07:03;98723.56;;;18.88;71.85
65754;BME280;69207;47.502;18.940;2023-09-08T01:08:07;98729.59;;;18.82;72.12
65754;BME280;69207;47.502;18.940;2023-09-08T01:09:11;98727.22;;;18.77;72.48
65754;BME280;69207;47.502;18.940;2023-09-08T01:10:15;98729.28;;;18.76;72.58
65754;BME280;69207;47.502;18.940;2023-09-08T01:11:19;98724.34;;;18.75;72.56
65754;BME280;69207;47.502;18.940;2023-09-08T01:12:23;98724.88;;;18.71;72.66
65754;BME280;69207;47.502;18.940;2023-09-08T01:13:26;98721.37;;;18.70;72.77
65754;BME280;69207;47.502;18.940;2023-09-08T01:14:29;98729.72;;;18.70;72.83
65754;BME280;69207;47.502;18.940;2023-09-08T01:15:33;98726.00;;;18.66;73.04
65754;BME280;69207;47.502;18.940;2023-09-08T01:16:36;98732.09;;;18.62;73.25
65754;BME280;69207;47.502;18.940;2023-09-08T01:17:40;98730.03;;;18.63;73.19
65754;BME280;69207;47.502;18.940;2023-09-08T01:18:44;98730.75;;;18.63;73.22
65754;BME280;69207;47.502;18.940;2023-09-08T01:19:56;98725.28;;;18.65;73.23
65754;BME280;69207;47.502;18.940;2023-09-08T01:24:20;98721.50;;;18.59;73.64
65754;BME280;69207;47.502;18.940;2023-09-08T01:25:32;98726.53;;;18.62;73.49
65754;BME280;69207;47.502;18.940;2023-09-08T01:26:41;98719.34;;;18.57;73.66
65754;BME280;69207;47.502;18.940;2023-09-08T01:27:53;98733.25;;;18.57;73.77
65754;BME280;69207;47.502;18.940;2023-09-08T01:28:57;98728.31;;;18.56;73.99
65754;BME280;69207;47.502;18.940;2023-09-08T01:30:05;98723.34;;;18.54;73.69
65754;BME280;69207;47.502;18.940;2023-09-08T01:31:09;98719.25;;;18.55;73.67
65754;BME280;69207;47.502;18.940;2023-09-08T01:32:13;98717.19;;;18.56;73.76
65754;BME280;69207;47.502;18.940;2023-09-08T01:33:17;98722.41;;;18.63;73.42
65754;BME280;69207;47.502;18.940;2023-09-08T01:34:20;98718.09;;;18.60;73.71
65754;BME280;69207;47.502;18.940;2023-09-08T01:35:24;98719.97;;;18.56;73.98
65754;BME280;69207;47.502;18.940;2023-09-08T01:36:27;98723.47;;;18.56;73.79
65754;BME280;69207;47.502;18.940;2023-09-08T01:37:30;98717.06;;;18.54;73.88
65754;BME280;69207;47.502;18.940;2023-09-08T01:38:33;98725.41;;;18.54;73.96
65754;BME280;69207;47.502;18.940;2023-09-08T01:39:37;98720.69;;;18.56;73.99
65754;BME280;69207;47.502;18.940;2023-09-08T01:40:40;98719.97;;;18.56;74.02
65754;BME280;69207;47.502;18.940;2023-09-08T01:41:43;98722.63;;;18.54;74.32
65754;BME280;69207;47.502;18.940;2023-09-08T01:42:48;98722.47;;;18.50;74.64
65754;BME280;69207;47.502;18.940;2023-09-08T01:43:52;98720.19;;;18.46;74.97
65754;BME280;69207;47.502;18.940;2023-09-08T01:44:55;98722.91;;;18.44;74.98
65754;BME280;69207;47.502;18.940;2023-09-08T01:45:58;98724.34;;;18.45;75.03
65754;BME280;69207;47.502;18.940;2023-09-08T01:47:02;98716.19;;;18.49;74.96
65754;BME280;69207;47.502;18.940;2023-09-08T01:48:05;98716.00;;;18.45;75.09
65754;BME280;69207;47.502;18.940;2023-09-08T01:49:08;98716.62;;;18.43;75.36
65754;BME280;69207;47.502;18.940;2023-09-08T01:50:11;98711.66;;;18.42;75.50
65754;BME280;69207;47.502;18.940;2023-09-08T01:51:15;98712.28;;;18.40;75.44
65754;BME280;69207;47.502;18.940;2023-09-08T01:52:18;98716.41;;;18.39;75.63
65754;BME280;69207;47.502;18.940;2023-09-08T01:53:21;98707.25;;;18.37;75.79
65754;BME280;69207;47.502;18.940;2023-09-08T01:54:24;98706.63;;;18.38;75.63
65754;BME280;69207;47.502;18.940;2023-09-08T01:55:27;98712.28;;;18.40;75.64
65754;BME280;69207;47.502;18.940;2023-09-08T01:56:31;98716.00;;;18.45;75.33
65754;BME280;69207;47.502;18.940;2023-09-08T01:57:34;98717.94;;;18.42;75.46
65754;BME280;69207;47.502;18.940;2023-09-08T01:58:37;98714.34;;;18.40;75.56
65754;BME280;69207;47.502;18.940;2023-09-08T01:59:40;98713.84;;;18.43;75.52
65754;BME280;69207;47.502;18.940;2023-09-08T02:00:43;98719.41;;;18.43;75.52
65754;BME280;69207;47.502;18.940;2023-09-08T02:01:50;98713.41;;;18.49;75.23
65754;BME280;69207;47.502;18.940;2023-09-08T02:02:53;98716.62;;;18.43;75.61
65754;BME280;69207;47.502;18.940;2023-09-08T02:03:57;98715.88;;;18.43;75.70
65754;BME280;69207;47.502;18.940;2023-09-08T02:05:00;98711.13;;;18.45;75.57
65754;BME280;69207;47.502;18.940;2023-09-08T02:06:03;98717.41;;;18.46;75.54
65754;BME280;69207;47.502;18.940;2023-09-08T02:07:06;98712.56;;;18.46;75.67
65754;BME280;69207;47.502;18.940;2023-09-08T02:08:09;98713.28;;;18.47;75.59
65754;BME280;69207;47.502;18.940;2023-09-08T02:09:14;98716.78;;;18.47;75.52
65754;BME280;69207;47.502;18.940;2023-09-08T02:10:18;98716.72;;;18.45;75.62
65754;BME280;69207;47.502;18.940;2023-09-08T02:11:21;98718.66;;;18.43;75.68
65754;BME280;69207;47.502;18.940;2023-09-08T02:12:25;98722.78;;;18.42;75.83
65754;BME280;69207;47.502;18.940;2023-09-08T02:13:28;98724.12;;;18.41;75.89
65754;BME280;69207;47.502;18.940;2023-09-08T02:14:31;98714.44;;;18.42;75.91
65754;BME280;69207;47.502;18.940;2023-09-08T02:15:35;98716.41;;;18.39;76.06
65754;BME280;69207;47.502;18.940;2023-09-08T02:16:39;98716.94;;;18.36;76.28
65754;BME280;69207;47.502;18.940;2023-09-08T02:17:42;98714.88;;;18.36;76.22
65754;BME280;69207;47.502;18.940;2023-09-08T02:18:46;98709.31;;;18.36;76.38
65754;BME280;69207;47.502;18.940;2023-09-08T02:19:49;98710.75;;;18.37;76.24
65754;BME280;69207;47.502;18.940;2023-09-08T02:20:52;98707.97;;;18.37;76.37
65754;BME280;69207;47.502;18.940;2023-09-08T02:21:56;98710.84;;;18.39;76.29
65754;BME280;69207;47.502;18.940;2023-09-08T02:23:04;98710.03;;;18.37;76.46
65754;BME280;69207;47.502;18.940;2023-09-08T02:24:07;98709.12;;;18.32;76.79
65754;BME280;69207;47.502;18.940;2023-09-08T02:25:11;98709.00;;;18.30;76.86
65754;BME280;69207;47.502;18.940;2023-09-08T02:26:14;98712.09;;;18.36;76.58
65754;BME280;69207;47.502;18.940;2023-09-08T02:27:19;98712.72;;;18.35;76.72
65754;BME280;69207;47.502;18.940;2023-09-08T02:28:22;98710.44;;;18.31;77.00
65754;BME280;69207;47.502;18.940;2023-09-08T02:29:25;98705.53;;;18.30;77.15
65754;BME280;69207;47.502;18.940;2023-09-08T02:30:29;98709.72;;;18.31;77.14
65754;BME280;69207;47.502;18.940;2023-09-08T02:31:32;98704.09;;;18.29;77.17
65754;BME280;69207;47.502;18.940;2023-09-08T02:32:36;98709.12;;;18.32;77.03
65754;BME280;69207;47.502;18.940;2023-09-08T02:33:39;98704.56;;;18.39;76.77
65754;BME280;69207;47.502;18.940;2023-09-08T02:34:42;98712.91;;;18.39;76.97
65754;BME280;69207;47.502;18.940;2023-09-08T02:35:46;98707.25;;;18.37;77.00
65754;BME280;69207;47.502;18.940;2023-09-08T02:36:49;98711.38;;;18.36;77.13
65754;BME280;69207;47.502;18.940;2023-09-08T02:37:53;98714.88;;;18.36;77.07
65754;BME280;69207;47.502;18.940;2023-09-08T02:38:57;98708.59;;;18.36;77.13
65754;BME280;69207;47.502;18.940;2023-09-08T02:40:01;98707.78;;;18.33;77.28
65754;BME280;69207;47.502;18.940;2023-09-08T02:41:05;98714.69;;;18.32;77.40
65754;BME280;69207;47.502;18.940;2023-09-08T02:42:08;98707.66;;;18.31;77.41
65754;BME280;69207;47.502;18.940;2023-09-08T02:43:11;98710.44;;;18.31;77.39
65754;BME280;69207;47.502;18.940;2023-09-08T02:44:14;98710.03;;;18.37;77.28
65754;BME280;69207;47.502;18.940;2023-09-08T02:45:17;98713.84;;;18.43;77.13
65754;BME280;69207;47.502;18.940;2023-09-08T02:46:20;98712.81;;;18.37;77.30
65754;BME280;69207;47.502;18.940;2023-09-08T02:47:23;98714.16;;;18.36;77.48
65754;BME280;69207;47.502;18.940;2023-09-08T02:48:26;98714.06;;;18.34;77.57
65754;BME280;69207;47.502;18.940;2023-09-08T02:49:29;98719.00;;;18.35;77.60
65754;BME280;69207;47.502;18.940;2023-09-08T02:50:32;98714.78;;;18.34;77.72
65754;BME280;69207;47.502;18.940;2023-09-08T02:51:36;98710.66;;;18.35;77.82
65754;BME280;69207;47.502;18.940;2023-09-08T02:52:39;98718.56;;;18.41;77.57
65754;BME280;69207;47.502;18.940;2023-09-08T02:53:42;98712.72;;;18.35;77.77
65754;BME280;69207;47.502;18.940;2023-09-08T02:54:45;98710.66;;;18.35;77.82
65754;BME280;69207;47.502;18.940;2023-09-08T02:55:48;98709.94;;;18.35;77.87
65754;BME280;69207;47.502;18.940;2023-09-08T02:56:51;98715.78;;;18.41;77.74
65754;BME280;69207;47.502;18.940;2023-09-08T02:57:54;98716.62;;;18.43;77.56
65754;BME280;69207;47.502;18.940;2023-09-08T02:58:58;98715.78;;;18.41;77.92
65754;BME280;69207;47.502;18.940;2023-09-08T03:00:01;98711.56;;;18.40;78.05
65754;BME280;69207;47.502;18.940;2023-09-08T03:01:12;98718.47;;;18.39;78.17
65754;BME280;69207;47.502;18.940;2023-09-08T03:02:17;98713.00;;;18.41;78.39
65754;BME280;69207;47.502;18.940;2023-09-08T03:03:20;98717.03;;;18.38;78.49
65754;BME280;69207;47.502;18.940;2023-09-08T03:04:24;98718.38;;;18.37;78.60
65754;BME280;69207;47.502;18.940;2023-09-08T03:05:27;98722.63;;;18.38;78.69
65754;BME280;69207;47.502;18.940;2023-09-08T03:06:31;98712.91;;;18.39;78.52
65754;BME280;69207;47.502;18.940;2023-09-08T03:07:34;98716.12;;;18.33;78.51
65754;BME280;69207;47.502;18.940;2023-09-08T03:08:40;98718.78;;;18.31;78.58
65754;BME280;69207;47.502;18.940;2023-09-08T03:09:44;98722.41;;;18.34;78.75
65754;BME280;69207;47.502;18.940;2023-09-08T03:10:47;98723.84;;;18.35;78.74
65754;BME280;69207;47.502;18.940;2023-09-08T03:11:51;98722.06;;;18.41;78.37
65754;BME280;69207;47.502;18.940;2023-09-08T03:12:54;98717.41;;;18.46;77.79
65754;BME280;69207;47.502;18.940;2023-09-08T03:13:57;98714.63;;;18.46;77.85
65754;BME280;69207;47.502;18.940;2023-09-08T03:15:01;98715.28;;;18.44;78.07
65754;BME280;69207;47.502;18.940;2023-09-08T03:16:06;98717.22;;;18.42;78.31
65754;BME280;69207;47.502;18.940;2023-09-08T03:17:09;98719.28;;;18.41;78.30
65754;BME280;69207;47.502;18.940;2023-09-08T03:18:12;98718.47;;;18.39;78.36
65754;BME280;69207;47.502;18.940;2023-09-08T03:19:18;98710.03;;;18.37;78.53
65754;BME280;69207;47.502;18.940;2023-09-08T03:20:22;98711.47;;;18.38;78.37
65754;BME280;69207;47.502;18.940;2023-09-08T03:21:25;98711.38;;;18.36;78.58
65754;BME280;69207;47.502;18.940;2023-09-08T03:22:28;98716.41;;;18.39;78.60
65754;BME280;69207;47.502;18.940;2023-09-08T03:23:32;98717.12;;;18.40;78.44
65754;BME280;69207;47.502;18.940;2023-09-08T03:24:35;98720.84;;;18.44;78.08
65754;BME280;69207;47.502;18.940;2023-09-08T03:25:38;98716.50;;;18.41;78.46
65754;BME280;69207;47.502;18.940;2023-09-08T03:26:41;98717.94;;;18.42;78.41
65754;BME280;69207;47.502;18.940;2023-09-08T03:27:44;98717.03;;;18.38;78.61
65754;BME280;69207;47.502;18.940;2023-09-08T03:28:47;98715.50;;;18.35;78.94
65754;BME280;69207;47.502;18.940;2023-09-08T03:29:50;98719.50;;;18.32;79.08
65754;BME280;69207;47.502;18.940;2023-09-08T03:30:54;98711.81;;;18.30;79.23
65754;BME280;69207;47.502;18.940;2023-09-08T03:31:57;98717.12;;;18.40;78.11
65754;BME280;69207;47.502;18.940;2023-09-08T03:33:01;98721.97;;;18.39;78.11
65754;BME280;69207;47.502;18.940;2023-09-08T03:34:04;98716.00;;;18.45;77.95
65754;BME280;69207;47.502;18.940;2023-09-08T03:35:08;98721.34;;;18.41;78.48
65754;BME280;69207;47.502;18.940;2023-09-08T03:36:11;98718.38;;;18.37;78.65
65754;BME280;69207;47.502;18.940;2023-09-08T03:37:14;98718.91;;;18.33;78.79
65754;BME280;69207;47.502;18.940;2023-09-08T03:38:18;98720.44;;;18.36;78.34
65754;BME280;69207;47.502;18.940;2023-09-08T03:39:21;98719.91;;;18.40;78.27
65754;BME280;69207;47.502;18.940;2023-09-08T03:40:24;98718.28;;;18.35;78.45
65754;BME280;69207;47.502;18.940;2023-09-08T03:41:28;98719.19;;;18.39;78.49
65754;BME280;69207;47.502;18.940;2023-09-08T03:42:31;98718.56;;;18.41;78.63
65754;BME280;69207;47.502;18.940;2023-09-08T03:43:34;98713.63;;;18.39;78.48
65754;BME280;69207;47.502;18.940;2023-09-08T03:44:38;98717.75;;;18.38;78.75
65754;BME280;69207;47.502;18.940;2023-09-08T03:45:41;98715.34;;;18.46;77.70
65754;BME280;69207;47.502;18.940;2023-09-08T03:46:44;98716.00;;;18.45;77.71
65754;BME280;69207;47.502;18.940;2023-09-08T03:47:48;98714.84;;;18.50;77.39
65754;BME280;69207;47.502;18.940;2023-09-08T03:48:51;98710.44;;;18.45;77.79
65754;BME280;69207;47.502;18.940;2023-09-08T03:49:57;98718.06;;;18.44;78.22
65754;BME280;69207;47.502;18.940;2023-09-08T03:51:00;98721.97;;;18.39;78.43
65754;BME280;69207;47.502;18.940;2023-09-08T03:52:04;98716.34;;;18.53;77.33
65754;BME280;69207;47.502;18.940;2023-09-08T03:53:07;98717.50;;;18.48;77.50
65754;BME280;69207;47.502;18.940;2023-09-08T03:54:10;98715.34;;;18.46;77.62
65754;BME280;69207;47.502;18.940;2023-09-08T03:55:13;98712.22;;;18.54;77.17
65754;BME280;69207;47.502;18.940;2023-09-08T03:56:17;98712.63;;;18.62;76.71
65754;BME280;69207;47.502;18.940;2023-09-08T03:57:20;98709.56;;;18.56;77.03
65754;BME280;69207;47.502;18.940;2023-09-08T03:58:23;98717.28;;;18.58;76.49
65754;BME280;69207;47.502;18.940;2023-09-08T03:59:26;98715.31;;;18.60;76.94
65754;BME280;69207;47.502;18.940;2023-09-08T04:00:30;98716.84;;;18.63;76.60
65754;BME280;69207;47.502;18.940;2023-09-08T04:01:33;98719.09;;;18.67;76.37
65754;BME280;69207;47.502;18.940;2023-09-08T04:02:36;98722.41;;;18.63;76.63
65754;BME280;69207;47.502;18.940;2023-09-08T04:03:40;98715.13;;;18.56;77.02
65754;BME280;69207;47.502;18.940;2023-09-08T04:04:43;98720.25;;;18.62;76.71
65754;BME280;69207;47.502;18.940;2023-09-08T04:05:46;98718.00;;;18.58;76.68
65754;BME280;69207;47.502;18.940;2023-09-08T04:06:49;98720.87;;;18.60;76.73
65754;BME280;69207;47.502;18.940;2023-09-08T04:07:53;98722.91;;;18.60;76.83
65754;BME280;69207;47.502;18.940;2023-09-08T04:08:56;98725.41;;;18.67;76.48
65754;BME280;69207;47.502;18.940;2023-09-08T04:09:59;98724.56;;;18.65;76.42
65754;BME280;69207;47.502;18.940;2023-09-08T04:11:03;98722.91;;;18.60;76.42
65754;BME280;69207;47.502;18.940;2023-09-08T04:12:06;98725.19;;;18.63;76.25
65754;BME280;69207;47.502;18.940;2023-09-08T04:13:12;98723.03;;;18.62;76.49
65754;BME280;69207;47.502;18.940;2023-09-08T04:14:15;98727.97;;;18.63;76.69
65754;BME280;69207;47.502;18.940;2023-09-08T04:15:18;98722.31;;;18.61;76.68
65754;BME280;69207;47.502;18.940;2023-09-08T04:16:22;98723.94;;;18.66;76.42
65754;BME280;69207;47.502;18.940;2023-09-08T04:17:26;98723.66;;;18.60;76.61
65754;BME280;69207;47.502;18.940;2023-09-08T04:18:28;98718.00;;;18.58;76.83
65754;BME280;69207;47.502;18.940;2023-09-08T04:19:32;98712.41;;;18.58;77.01
65754;BME280;69207;47.502;18.940;2023-09-08T04:20:35;98718.69;;;18.59;76.99
65754;BME280;69207;47.502;18.940;2023-09-08T04:21:41;98723.56;;;18.58;76.90
65754;BME280;69207;47.502;18.940;2023-09-08T04:22:44;98722.03;;;18.55;76.89
65754;BME280;69207;47.502;18.940;2023-09-08T04:23:47;98722.63;;;18.54;77.02
65754;BME280;69207;47.502;18.940;2023-09-08T04:24:50;98722.47;;;18.50;77.41
65754;BME280;69207;47.502;18.940;2023-09-08T04:25:53;98719.06;;;18.51;77.22
65754;BME280;69207;47.502;18.940;2023-09-08T04:26:56;98724.81;;;18.55;77.10
65754;BME280;69207;47.502;18.940;2023-09-08T04:27:59;98725.34;;;18.52;77.20
65754;BME280;69207;47.502;18.940;2023-09-08T04:29:02;98733.06;;;18.53;77.19
65754;BME280;69207;47.502;18.940;2023-09-08T04:30:06;98719.97;;;18.56;77.12
65754;BME280;69207;47.502;18.940;2023-09-08T04:31:10;98722.75;;;18.56;76.81
65754;BME280;69207;47.502;18.940;2023-09-08T04:32:13;98716.84;;;18.63;75.82
65754;BME280;69207;47.502;18.940;2023-09-08T04:33:16;98715.91;;;18.72;75.58
65754;BME280;69207;47.502;18.940;2023-09-08T04:34:19;98722.81;;;18.71;75.93
65754;BME280;69207;47.502;18.940;2023-09-08T04:35:23;98725.41;;;18.67;76.08
65754;BME280;69207;47.502;18.940;2023-09-08T04:36:26;98723.94;;;18.66;75.72
65754;BME280;69207;47.502;18.940;2023-09-08T04:37:29;98727.34;;;18.65;75.79
65754;BME280;69207;47.502;18.940;2023-09-08T04:38:33;98726.13;;;18.68;75.64
65754;BME280;69207;47.502;18.940;2023-09-08T04:39:36;98725.41;;;18.67;75.84
65754;BME280;69207;47.502;18.940;2023-09-08T04:40:45;98727.97;;;18.63;76.33
65754;BME280;69207;47.502;18.940;2023-09-08T04:41:49;98734.88;;;18.62;76.47
65754;BME280;69207;47.502;18.940;2023-09-08T04:42:52;98737.66;;;18.62;76.49
65754;BME280;69207;47.502;18.940;2023-09-08T04:43:55;98734.81;;;18.60;76.49
65754;BME280;69207;47.502;18.940;2023-09-08T04:45:01;98729.31;;;18.62;76.37
65754;BME280;69207;47.502;18.940;2023-09-08T04:46:04;98729.63;;;18.68;75.87
65754;BME280;69207;47.502;18.940;2023-09-08T04:47:07;98730.75;;;18.63;75.98
65754;BME280;69207;47.502;18.940;2023-09-08T04:48:10;98727.44;;;18.67;75.72
65754;BME280;69207;47.502;18.940;2023-09-08T04:49:14;98727.34;;;18.65;75.65
65754;BME280;69207;47.502;18.940;2023-09-08T04:50:17;98727.44;;;18.67;75.61
65754;BME280;69207;47.502;18.940;2023-09-08T04:51:20;98732.41;;;18.68;75.62
65754;BME280;69207;47.502;18.940;2023-09-08T04:52:24;98732.50;;;18.70;75.48
65754;BME280;69207;47.502;18.940;2023-09-08T04:53:27;98738.16;;;18.72;75.37
65754;BME280;69207;47.502;18.940;2023-09-08T04:54:30;98735.09;;;18.66;75.70
65754;BME280;69207;47.502;18.940;2023-09-08T04:55:34;98737.75;;;18.64;75.91
65754;BME280;69207;47.502;18.940;2023-09-08T04:56:38;98741.56;;;18.71;75.41
65754;BME280;69207;47.502;18.940;2023-09-08T04:57:42;98737.16;;;18.66;75.70
65754;BME280;69207;47.502;18.940;2023-09-08T04:58:45;98738.59;;;18.67;75.70
65754;BME280;69207;47.502;18.940;2023-09-08T04:59:48;98743.22;;;18.62;76.00
65754;BME280;69207;47.502;18.940;2023-09-08T05:00:52;98741.16;;;18.63;75.89
65754;BME280;69207;47.502;18.940;2023-09-08T05:01:55;98734.97;;;18.64;75.93
65754;BME280;69207;47.502;18.940;2023-09-08T05:02:58;98729.84;;;18.59;76.22
65754;BME280;69207;47.502;18.940;2023-09-08T05:04:01;98735.41;;;18.59;76.15
65754;BME280;69207;47.502;18.940;2023-09-08T05:05:04;98733.34;;;18.59;76.15
65754;BME280;69207;47.502;18.940;2023-09-08T05:06:07;98730.22;;;18.67;76.06
65754;BME280;69207;47.502;18.940;2023-09-08T05:07:10;98732.19;;;18.64;75.83
65754;BME280;69207;47.502;18.940;2023-09-08T05:08:16;98724.47;;;18.63;75.68
65754;BME280;69207;47.502;18.940;2023-09-08T05:09:19;98732.62;;;18.59;75.95
65754;BME280;69207;47.502;18.940;2023-09-08T05:10:23;98734.47;;;18.68;75.46
65754;BME280;69207;47.502;18.940;2023-09-08T05:11:27;98737.34;;;18.70;75.30
65754;BME280;69207;47.502;18.940;2023-09-08T05:12:30;98740.53;;;18.64;75.78
65754;BME280;69207;47.502;18.940;2023-09-08T05:13:33;98737.88;;;18.66;75.64
65754;BME280;69207;47.502;18.940;2023-09-08T05:14:36;98740.66;;;18.66;75.75
65754;BME280;69207;47.502;18.940;2023-09-08T05:15:39;98744.25;;;18.69;75.77
65754;BME280;69207;47.502;18.940;2023-09-08T05:16:45;98742.19;;;18.69;75.56
65754;BME280;69207;47.502;18.940;2023-09-08T05:17:49;98736.41;;;18.65;75.82
65754;BME280;69207;47.502;18.940;2023-09-08T05:18:52;98744.75;;;18.65;76.15
65754;BME280;69207;47.502;18.940;2023-09-08T05:19:55;98746.59;;;18.75;75.31
65754;BME280;69207;47.502;18.940;2023-09-08T05:20:59;98741.75;;;18.75;75.22
65754;BME280;69207;47.502;18.940;2023-09-08T05:22:04;98743.63;;;18.70;75.70
65754;BME280;69207;47.502;18.940;2023-09-08T05:23:08;98748.41;;;18.68;75.89
65754;BME280;69207;47.502;18.940;2023-09-08T05:24:11;98751.37;;;18.72;75.47
65754;BME280;69207;47.502;18.940;2023-09-08T05:25:14;98740.53;;;18.78;74.92
65754;BME280;69207;47.502;18.940;2023-09-08T05:26:17;98747.53;;;18.79;74.92
65754;BME280;69207;47.502;18.940;2023-09-08T05:27:20;98751.53;;;18.76;74.96
65754;BME280;69207;47.502;18.940;2023-09-08T05:28:23;98747.12;;;18.71;75.58
65754;BME280;69207;47.502;18.940;2023-09-08T05:29:26;98754.31;;;18.76;75.31
65754;BME280;69207;47.502;18.940;2023-09-08T05:30:30;98752.38;;;18.79;75.11
65754;BME280;69207;47.502;18.940;2023-09-08T05:31:33;98753.19;;;18.81;75.10
65754;BME280;69207;47.502;18.940;2023-09-08T05:32:36;98749.78;;;18.83;74.74
65754;BME280;69207;47.502;18.940;2023-09-08T05:33:39;98744.31;;;18.85;74.85
65754;BME280;69207;47.502;18.940;2023-09-08T05:34:43;98748.88;;;18.78;75.57
65754;BME280;69207;47.502;18.940;2023-09-08T05:35:46;98753.81;;;18.80;75.40